Wembley, United Kingdom
Current Conditions -  °F | °C
As of 12:50 PM on Saturday 25 Oct 2014 (Local Time) from EGWU Reporting Station
Broken Clouds Broken Clouds  
Wind Chill: 57°   Ceiling: 4500
Heat Index: 57°   Visibility: 6mi
Dew Point: 43°   Wind: 12mph
Humidity: 59%   Direction: 260°W
Pressure: 30.06"   Gusts: NA
Location:  51.56°N, 0.28°W
Report Text: EGWU 251150Z 26010KT 9999 FEW030 BKN045 14/06 Q1018 NOSIG
Loading
Personal Weather Stations






























Interactive Weather Map
Tropical Storm Tracking
New forecast layout! Learn more

10-Day Weather Forecast

Advertisements
Track Severe Weather on mobile